createdAt,value
2022-08-18T00:01:05.304Z,98783.00
2022-08-18T00:04:34.021Z,98785.03
2022-08-18T00:07:33.100Z,98781.09
2022-08-18T00:10:35.501Z,98779.19
2022-08-18T00:13:37.745Z,98777.59
2022-08-18T00:16:40.065Z,98772.09
2022-08-18T00:19:46.122Z,98768.28
2022-08-18T00:22:50.760Z,98760.75
2022-08-18T00:25:53.064Z,98746.16
2022-08-18T00:28:55.680Z,98757.72
2022-08-18T00:31:58.526Z,98756.22
2022-08-18T00:35:09.565Z,98764.03
2022-08-18T00:38:24.577Z,98766.75
2022-08-18T00:41:28.688Z,98756.13
2022-08-18T00:44:30.923Z,98754.50
2022-08-18T00:47:42.686Z,98750.69
2022-08-18T00:50:58.416Z,98747.88
2022-08-18T00:54:09.144Z,98746.25
2022-08-18T00:57:12.576Z,98759.31
2022-08-18T01:00:15.318Z,98759.81
2022-08-18T01:03:24.499Z,98760.78
2022-08-18T01:06:32.394Z,98755.81
2022-08-18T01:09:35.277Z,98753.97
2022-08-18T01:12:45.547Z,98761.28
2022-08-18T01:15:48.865Z,98766.81
2022-08-18T01:19:10.113Z,98764.78
2022-08-18T01:22:23.554Z,98761.88
2022-08-18T01:25:44.290Z,98763.50
2022-08-18T01:28:47.312Z,98765.00
2022-08-18T01:31:56.968Z,98771.63
2022-08-18T01:34:59.668Z,98766.63
2022-08-18T01:38:01.866Z,98775.56
2022-08-18T01:41:27.069Z,98776.88
2022-08-18T01:44:27.232Z,98786.03
2022-08-18T01:47:31.420Z,98779.66
2022-08-18T01:50:50.542Z,98782.81
2022-08-18T01:53:52.753Z,98793.97
2022-08-18T01:56:55.001Z,98798.16
2022-08-18T02:00:00.995Z,98803.41
2022-08-18T02:03:09.856Z,98805.53
2022-08-18T02:06:15.040Z,98816.16
2022-08-18T02:09:23.784Z,98813.91
2022-08-18T02:12:27.145Z,98809.22
2022-08-18T02:15:29.498Z,98807.19
2022-08-18T02:18:46.800Z,98806.50
2022-08-18T02:21:54.014Z,98803.34
2022-08-18T02:24:57.419Z,98801.47
2022-08-18T02:27:59.684Z,98808.09
2022-08-18T02:31:11.663Z,98811.03
2022-08-18T02:34:15.715Z,98813.22
2022-08-18T02:37:18.022Z,98812.56
2022-08-18T02:40:20.427Z,98815.62
2022-08-18T02:43:22.894Z,98803.78
2022-08-18T02:46:31.045Z,98808.00
2022-08-18T02:49:33.768Z,98802.63
2022-08-18T02:52:36.061Z,98815.03
2022-08-18T02:55:39.511Z,98817.50
2022-08-18T02:58:42.477Z,98823.69
2022-08-18T03:01:47.753Z,98828.16
2022-08-18T03:04:51.376Z,98814.22
2022-08-18T03:07:54.025Z,98819.34
2022-08-18T03:10:56.354Z,98824.63
2022-08-18T03:13:59.527Z,98823.41
2022-08-18T03:17:04.664Z,98835.63
2022-08-18T03:20:08.078Z,98833.31
2022-08-18T03:23:12.092Z,98832.19
2022-08-18T03:26:16.443Z,98838.44
2022-08-18T03:29:19.532Z,98837.06
2022-08-18T03:32:21.751Z,98834.16
2022-08-18T03:35:25.871Z,98844.28
2022-08-18T03:38:28.108Z,98851.28
2022-08-18T03:41:57.543Z,98856.94
2022-08-18T03:44:52.896Z,98854.31
2022-08-18T03:47:55.117Z,98856.72
2022-08-18T03:51:07.596Z,98868.78
2022-08-18T03:54:10.293Z,98866.09
2022-08-18T03:57:13.198Z,98872.00
2022-08-18T04:00:15.619Z,98873.63
2022-08-18T04:03:17.796Z,98869.59
2022-08-18T04:06:29.898Z,98873.09
2022-08-18T04:09:34.062Z,98873.94
2022-08-18T04:12:38.090Z,98871.72
2022-08-18T04:15:40.340Z,98870.38
2022-08-18T04:18:42.926Z,98852.22
2022-08-18T04:21:45.415Z,98822.97
2022-08-18T04:24:49.739Z,98829.94
2022-08-18T04:27:52.286Z,98837.84
2022-08-18T04:30:55.081Z,98837.78
2022-08-18T04:33:58.647Z,98839.62
2022-08-18T04:37:02.465Z,98843.41
2022-08-18T04:40:06.103Z,98848.72
2022-08-18T04:43:15.138Z,98851.94
2022-08-18T04:46:17.399Z,98860.84
2022-08-18T04:49:26.096Z,98860.16
2022-08-18T04:52:47.117Z,98862.59
2022-08-18T04:55:54.676Z,98862.28
2022-08-18T04:59:00.551Z,98860.50
2022-08-18T05:02:10.368Z,98854.22
2022-08-18T05:05:16.418Z,98865.56
2022-08-18T05:08:18.686Z,98862.66
2022-08-18T05:11:25.572Z,98857.34
2022-08-18T05:14:27.846Z,98849.28
2022-08-18T05:17:31.256Z,98845.06
2022-08-18T05:20:33.558Z,98839.62
2022-08-18T05:23:36.412Z,98838.81
2022-08-18T05:26:40.888Z,98840.91
2022-08-18T05:29:45.834Z,98837.81
2022-08-18T05:32:50.380Z,98843.69
2022-08-18T05:36:01.842Z,98835.37
2022-08-18T05:39:19.236Z,98835.22
2022-08-18T05:42:23.055Z,98838.62
2022-08-18T05:45:26.994Z,98843.56
2022-08-18T05:48:29.230Z,98842.78
2022-08-18T05:51:37.043Z,98833.13
2022-08-18T05:55:01.318Z,98852.16
2022-08-18T05:58:09.139Z,98852.84
2022-08-18T06:01:18.614Z,98851.56
2022-08-18T06:04:31.090Z,98848.56
2022-08-18T06:07:37.828Z,98853.47
2022-08-18T06:10:50.204Z,98860.03
2022-08-18T06:13:59.480Z,98860.50
2022-08-18T06:17:12.449Z,98850.97
2022-08-18T06:20:39.563Z,98856.41
2022-08-18T06:23:47.446Z,98860.91
2022-08-18T06:27:14.564Z,98860.56
2022-08-18T06:30:23.959Z,98871.88
2022-08-18T06:33:32.532Z,98873.00
2022-08-18T06:36:53.966Z,98869.22
2022-08-18T06:39:57.332Z,98860.88
2022-08-18T06:43:02.202Z,98872.25
2022-08-18T06:46:12.934Z,98878.75
2022-08-18T06:49:24.898Z,98876.62
2022-08-18T06:52:30.832Z,98884.91
2022-08-18T06:55:37.634Z,98874.19
2022-08-18T06:58:39.887Z,98868.97
2022-08-18T07:01:43.641Z,98861.25
2022-08-18T07:05:05.858Z,98865.97
2022-08-18T07:08:32.410Z,98863.50
2022-08-18T07:11:35.177Z,98868.72
2022-08-18T07:14:54.056Z,98865.97
2022-08-18T07:18:05.401Z,98862.50
2022-08-18T07:21:07.653Z,98862.12
2022-08-18T07:24:28.590Z,98862.09
2022-08-18T07:27:49.368Z,98859.19
2022-08-18T07:31:15.592Z,98861.44
2022-08-18T07:34:19.304Z,98858.00
2022-08-18T07:37:28.925Z,98848.56
2022-08-18T07:40:50.757Z,98853.13
2022-08-18T07:44:18.611Z,98858.34
2022-08-18T07:47:28.360Z,98857.44
2022-08-18T07:50:58.323Z,98850.03
2022-08-18T07:54:03.778Z,98862.94
2022-08-18T07:57:20.095Z,98855.25
2022-08-18T08:00:47.797Z,98867.97
2022-08-18T08:04:08.164Z,98867.41
2022-08-18T08:07:24.844Z,98863.19
2022-08-18T08:10:46.847Z,98874.34
2022-08-18T08:14:01.345Z,98873.47
2022-08-18T08:17:09.977Z,98883.03
2022-08-18T08:20:49.300Z,98882.13
2022-08-18T08:24:00.433Z,98889.56
2022-08-18T08:27:34.430Z,98893.72
2022-08-18T08:30:44.472Z,98896.78
2022-08-18T08:33:54.292Z,98897.16
2022-08-18T08:37:05.304Z,98892.06
2022-08-18T08:40:32.804Z,98887.81
2022-08-18T08:43:45.228Z,98901.22
2022-08-18T08:46:53.345Z,98901.19
2022-08-18T08:50:02.517Z,98890.59
2022-08-18T08:53:26.400Z,98888.56
2022-08-18T08:56:33.817Z,98880.94
2022-08-18T08:59:37.392Z,98876.78
2022-08-18T09:03:08.190Z,98868.44
2022-08-18T09:06:48.243Z,98870.63
2022-08-18T09:10:24.677Z,98875.25
2022-08-18T09:13:55.716Z,98874.44
2022-08-18T09:17:09.917Z,98872.03
2022-08-18T09:20:28.006Z,98874.56
2022-08-18T09:23:40.006Z,98872.16
2022-08-18T09:26:50.367Z,98855.41
2022-08-18T09:29:55.716Z,98861.09
2022-08-18T09:33:18.562Z,98852.59
2022-08-18T09:36:42.672Z,98855.69
2022-08-18T09:40:38.729Z,98850.53
2022-08-18T09:44:12.088Z,98844.03
2022-08-18T09:47:27.368Z,98838.12
2022-08-18T09:50:38.148Z,98836.16
2022-08-18T09:53:47.270Z,98839.47
2022-08-18T10:00:15.442Z,98835.19
2022-08-18T10:03:25.986Z,98831.09
2022-08-18T10:06:37.504Z,98820.34
2022-08-18T10:09:51.458Z,98804.13
2022-08-18T10:13:01.970Z,98794.03
2022-08-18T10:16:19.044Z,98784.59
2022-08-18T10:19:39.874Z,98781.47
2022-08-18T10:22:47.547Z,98784.22
2022-08-18T10:25:50.254Z,98788.63
2022-08-18T10:28:55.776Z,98783.06
2022-08-18T10:31:59.918Z,98775.78
2022-08-18T10:35:02.262Z,98783.34
2022-08-18T10:38:18.962Z,98779.72
2022-08-18T10:44:53.282Z,98774.66
2022-08-18T10:48:05.168Z,98782.75
2022-08-18T10:51:22.902Z,98789.44
2022-08-18T10:55:01.016Z,98783.25
2022-08-18T10:58:34.148Z,98784.16
2022-08-18T11:01:48.509Z,98780.22
2022-08-18T11:04:58.594Z,98786.03
2022-08-18T11:08:02.838Z,98768.41
2022-08-18T11:11:33.329Z,98775.19
2022-08-18T11:21:57.536Z,98767.63
2022-08-18T11:25:01.206Z,98759.63
2022-08-18T11:28:19.224Z,98762.44
2022-08-18T11:38:31.736Z,98746.00
2022-08-18T11:41:48.228Z,98749.38
2022-08-18T11:44:51.826Z,98733.09
2022-08-18T11:48:20.732Z,98723.62
2022-08-18T11:51:29.197Z,98729.22
2022-08-18T11:54:38.421Z,98718.03
2022-08-18T11:57:49.704Z,98721.41
2022-08-18T12:00:53.566Z,98721.34
2022-08-18T12:03:57.494Z,98721.69
2022-08-18T12:07:02.009Z,98707.53
2022-08-18T12:10:26.480Z,98702.97
2022-08-18T12:13:31.498Z,98704.97
2022-08-18T12:16:46.569Z,98695.28
2022-08-18T12:19:53.006Z,98694.16
2022-08-18T12:22:57.091Z,98684.41
2022-08-18T12:25:59.466Z,98675.94
2022-08-18T12:29:01.876Z,98674.34
2022-08-18T12:35:27.465Z,98666.03
2022-08-18T12:38:31.746Z,98662.22
2022-08-18T12:41:34.019Z,98654.59
2022-08-18T12:44:36.810Z,98647.31
2022-08-18T12:47:40.232Z,98647.44
2022-08-18T12:50:54.301Z,98643.53
2022-08-18T12:54:00.639Z,98658.13
2022-08-18T12:57:06.713Z,98657.34
2022-08-18T13:00:10.367Z,98663.66
2022-08-18T13:03:19.478Z,98667.00
2022-08-18T13:06:22.890Z,98673.09
2022-08-18T13:09:35.238Z,98668.66
2022-08-18T13:12:53.957Z,98674.00
2022-08-18T13:15:58.652Z,98667.97
2022-08-18T13:19:06.078Z,98677.97
2022-08-18T13:22:08.483Z,98680.00
2022-08-18T13:25:32.808Z,98674.16
2022-08-18T13:28:56.667Z,98683.56
2022-08-18T13:31:59.675Z,98693.97
2022-08-18T13:35:02.871Z,98695.16
2022-08-18T13:38:25.844Z,98703.59
2022-08-18T13:41:31.618Z,98698.03
2022-08-18T13:44:35.086Z,98688.91
2022-08-18T13:47:38.220Z,98678.31
2022-08-18T13:50:40.717Z,98682.59
2022-08-18T13:53:57.425Z,98667.09
2022-08-18T13:57:02.742Z,98673.56
2022-08-18T14:00:18.007Z,98675.19
2022-08-18T14:03:31.131Z,98682.28
2022-08-18T14:06:46.829Z,98681.91
2022-08-18T14:09:53.736Z,98681.44
2022-08-18T14:12:57.960Z,98681.38
2022-08-18T14:16:01.309Z,98681.28
2022-08-18T14:19:23.776Z,98685.22
2022-08-18T14:22:44.455Z,98682.37
2022-08-18T14:26:05.363Z,98688.91
2022-08-18T14:29:16.270Z,98682.25
2022-08-18T14:32:21.908Z,98681.28
2022-08-18T14:36:04.175Z,98685.22
2022-08-18T14:38:54.226Z,98671.81
2022-08-18T14:41:58.495Z,98682.56
2022-08-18T14:45:18.007Z,98691.31
2022-08-18T14:48:23.335Z,98692.09
2022-08-18T14:51:29.102Z,98690.50
2022-08-18T14:54:32.482Z,98687.22
2022-08-18T14:57:34.742Z,98690.34
2022-08-18T15:00:53.723Z,98694.72
2022-08-18T15:03:56.525Z,98690.72
2022-08-18T15:06:58.781Z,98685.84
2022-08-18T15:10:15.597Z,98677.91
2022-08-18T15:13:19.005Z,98673.88
2022-08-18T15:16:27.138Z,98668.75
2022-08-18T15:19:59.608Z,98662.56
2022-08-18T15:23:22.765Z,98668.00
2022-08-18T15:26:31.071Z,98657.78
2022-08-18T15:29:33.472Z,98661.66
2022-08-18T15:32:35.752Z,98663.16
2022-08-18T15:35:44.168Z,98662.84
2022-08-18T15:38:46.595Z,98656.44
2022-08-18T15:44:55.016Z,98677.59
2022-08-18T15:47:59.554Z,98666.09
2022-08-18T15:51:09.251Z,98667.66
2022-08-18T15:54:14.940Z,98665.16
2022-08-18T15:57:39.517Z,98678.19
2022-08-18T16:00:43.766Z,98670.91
2022-08-18T16:03:50.100Z,98668.66
2022-08-18T16:06:55.982Z,98665.56
2022-08-18T16:09:58.309Z,98651.66
2022-08-18T16:13:04.672Z,98648.91
2022-08-18T16:16:11.263Z,98652.28
2022-08-18T16:19:13.924Z,98643.09
2022-08-18T16:22:16.625Z,98652.16
2022-08-18T16:25:19.177Z,98652.91
2022-08-18T16:28:21.436Z,98658.09
2022-08-18T16:31:37.358Z,98659.47
2022-08-18T16:34:41.307Z,98670.84
2022-08-18T16:37:44.380Z,98660.06
2022-08-18T16:40:47.032Z,98664.03
2022-08-18T16:43:49.822Z,98666.47
2022-08-18T16:46:53.356Z,98664.03
2022-08-18T16:49:58.475Z,98669.47
2022-08-18T16:53:01.497Z,98661.53
2022-08-18T16:56:03.987Z,98661.84
2022-08-18T16:59:24.935Z,98667.34
2022-08-18T17:02:45.832Z,98658.81
2022-08-18T17:05:48.503Z,98657.22
2022-08-18T17:08:50.696Z,98658.09
2022-08-18T17:11:53.422Z,98652.22
2022-08-18T17:14:55.999Z,98646.63
2022-08-18T17:17:58.521Z,98643.31
2022-08-18T17:21:06.012Z,98631.28
2022-08-18T17:24:11.444Z,98622.50
2022-08-18T17:27:26.627Z,98612.22
2022-08-18T17:30:32.850Z,98612.59
2022-08-18T17:33:40.807Z,98610.75
2022-08-18T17:36:55.040Z,98622.66
2022-08-18T17:40:02.301Z,98610.62
2022-08-18T17:43:10.534Z,98623.53
2022-08-18T17:46:27.582Z,98622.44
2022-08-18T17:50:26.537Z,98612.81
2022-08-18T17:53:24.766Z,98616.06
2022-08-18T17:56:35.943Z,98602.47
2022-08-18T17:59:51.426Z,98581.00
2022-08-18T18:02:54.269Z,98570.25
2022-08-18T18:06:03.892Z,98571.13
2022-08-18T18:09:21.417Z,98583.63
2022-08-18T18:12:26.599Z,98602.88
2022-08-18T18:15:33.279Z,98617.09
2022-08-18T18:18:45.373Z,98628.19
2022-08-18T18:22:03.503Z,98621.34
2022-08-18T18:25:07.967Z,98629.22
2022-08-18T18:28:35.120Z,98632.00
2022-08-18T18:31:37.445Z,98627.13
2022-08-18T18:34:46.507Z,98635.09
2022-08-18T18:37:55.459Z,98634.13
2022-08-18T18:41:02.016Z,98630.94
2022-08-18T18:44:09.761Z,98640.09
2022-08-18T18:47:27.463Z,98643.87
2022-08-18T18:50:39.082Z,98646.13
2022-08-18T18:54:32.954Z,98644.09
2022-08-18T18:58:04.224Z,98650.81
2022-08-18T19:01:19.898Z,98662.25
2022-08-18T19:04:32.662Z,98652.09
2022-08-18T19:08:00.010Z,98653.56
2022-08-18T19:11:10.893Z,98641.00
2022-08-18T19:14:20.746Z,98649.72
2022-08-18T19:17:54.146Z,98641.94
2022-08-18T19:22:01.616Z,98646.97
2022-08-18T19:24:25.553Z,98640.34
2022-08-18T19:27:35.588Z,98641.16
2022-08-18T19:30:40.641Z,98651.16
2022-08-18T19:34:08.488Z,98640.34
2022-08-18T19:37:43.442Z,98639.91
2022-08-18T19:40:54.808Z,98636.47
2022-08-18T19:44:14.375Z,98635.00
2022-08-18T19:47:49.991Z,98635.13
2022-08-18T19:51:15.695Z,98637.63
2022-08-18T19:54:48.584Z,98629.75
2022-08-18T19:58:11.070Z,98629.53
2022-08-18T20:01:38.048Z,98629.09
2022-08-18T20:05:20.541Z,98630.78
2022-08-18T20:08:28.613Z,98638.53
2022-08-18T20:11:58.499Z,98631.53
2022-08-18T20:15:05.990Z,98642.72
2022-08-18T20:18:23.047Z,98641.00
2022-08-18T20:21:45.885Z,98637.22
2022-08-18T20:24:53.110Z,98640.62
2022-08-18T20:28:01.055Z,98640.97
2022-08-18T20:31:12.839Z,98641.41
2022-08-18T20:34:17.684Z,98644.03
2022-08-18T20:37:27.859Z,98641.75
2022-08-18T20:40:43.021Z,98638.44
2022-08-18T20:43:47.420Z,98643.09
2022-08-18T20:47:14.555Z,98637.00
2022-08-18T20:50:35.854Z,98641.06
2022-08-18T20:53:50.937Z,98637.75
2022-08-18T20:56:59.725Z,98643.91
2022-08-18T21:00:27.329Z,98651.03
2022-08-18T21:03:39.316Z,98652.06
2022-08-18T21:06:44.574Z,98656.91
2022-08-18T21:09:52.554Z,98668.13
2022-08-18T21:12:57.410Z,98666.19
2022-08-18T21:16:00.182Z,98670.97
2022-08-18T21:19:24.686Z,98669.13
2022-08-18T21:22:27.980Z,98675.25
2022-08-18T21:25:32.569Z,98663.06
2022-08-18T21:28:37.138Z,98679.28
2022-08-18T21:31:44.957Z,98684.91
2022-08-18T21:34:50.474Z,98696.16
2022-08-18T21:38:04.973Z,98699.75
2022-08-18T21:41:13.064Z,98711.81
2022-08-18T21:44:20.425Z,98704.78
2022-08-18T21:47:34.198Z,98704.44
2022-08-18T21:50:37.662Z,98713.63
2022-08-18T21:53:39.893Z,98703.56
2022-08-18T21:56:42.292Z,98716.25
2022-08-18T22:00:18.061Z,98718.06
2022-08-18T22:03:22.309Z,98720.13
2022-08-18T22:06:35.594Z,98724.31
2022-08-18T22:10:17.910Z,98720.31
2022-08-18T22:13:44.275Z,98718.25
2022-08-18T22:16:47.501Z,98727.38
2022-08-18T22:19:50.565Z,98738.16
2022-08-18T22:23:30.563Z,98740.09
2022-08-18T22:26:37.174Z,98741.22
2022-08-18T22:30:08.501Z,98748.12
2022-08-18T22:33:10.739Z,98743.13
2022-08-18T22:36:17.463Z,98750.34
2022-08-18T22:39:27.714Z,98741.06
2022-08-18T22:42:33.711Z,98754.50
2022-08-18T22:45:35.963Z,98757.72
2022-08-18T22:48:38.575Z,98762.03
2022-08-18T22:51:41.004Z,98759.97
2022-08-18T22:54:43.514Z,98761.25
2022-08-18T22:57:46.300Z,98769.44
2022-08-18T23:00:49.265Z,98761.09
2022-08-18T23:03:52.397Z,98761.75
2022-08-18T23:06:55.560Z,98755.03
2022-08-18T23:09:58.279Z,98752.78
2022-08-18T23:13:04.245Z,98749.44
2022-08-18T23:16:30.123Z,98752.81
2022-08-18T23:19:32.093Z,98751.03
2022-08-18T23:22:34.464Z,98742.84
2022-08-18T23:25:36.780Z,98749.59
2022-08-18T23:28:45.554Z,98733.72
2022-08-18T23:31:49.731Z,98737.56
2022-08-18T23:34:51.939Z,98739.19
2022-08-18T23:37:54.357Z,98739.84
2022-08-18T23:40:57.428Z,98737.44
2022-08-18T23:44:00.202Z,98743.50
2022-08-18T23:47:02.765Z,98742.56
2022-08-18T23:50:06.746Z,98727.66
2022-08-18T23:53:10.569Z,98732.00
2022-08-18T23:56:12.771Z,98726.06
2022-08-18T23:59:16.466Z,98721.56
